Terminal Aerodrome Forecast
Issued by NWS

Current Version | Previous Version | Text Only | Print | Product List | Glossary Off
Versions: 1 2 3 4 5 6 7 8 9 10 11 12 13 14 15 16 17 18 19 20 21 22

521
FTUS41 KPBZ 281014 AAB
TAFMGW
TAF AMD
KMGW 281014Z 2810/2906 00000KT 2SM BR SCT090
      TEMPO 2810/2812 1/4SM FG VV001
     FM281200 20003KT P6SM SCT250
     FM282300 18005KT P6SM BKN120=

USA.gov is the U.S. government's official web portal to all federal, state and local government web resources and services.